sensor_id;sensor_type;location;lat;lon;timestamp;pressure;altitude;pressure_sealevel;temperature;humidity
14612;BME280;7392;52.078;11.650;2023-02-27T00:00:20;101983.19;;;-3.01;95.50
14612;BME280;7392;52.078;11.650;2023-02-27T00:02:50;101986.47;;;-3.04;95.80
14612;BME280;7392;52.078;11.650;2023-02-27T00:05:19;101978.44;;;-3.07;95.73
14612;BME280;7392;52.078;11.650;2023-02-27T00:07:50;101980.81;;;-3.10;95.36
14612;BME280;7392;52.078;11.650;2023-02-27T00:10:19;101979.91;;;-3.10;95.92
14612;BME280;7392;52.078;11.650;2023-02-27T00:12:47;101981.63;;;-3.11;96.36
14612;BME280;7392;52.078;11.650;2023-02-27T00:15:18;101978.09;;;-3.11;96.00
14612;BME280;7392;52.078;11.650;2023-02-27T00:17:48;101977.22;;;-3.12;96.77
14612;BME280;7392;52.078;11.650;2023-02-27T00:20:18;101982.41;;;-3.12;96.85
14612;BME280;7392;52.078;11.650;2023-02-27T00:22:47;101980.59;;;-3.13;96.59
14612;BME280;7392;52.078;11.650;2023-02-27T00:25:23;101978.81;;;-3.14;96.98
14612;BME280;7392;52.078;11.650;2023-02-27T00:27:51;101979.69;;;-3.13;97.07
14612;BME280;7392;52.078;11.650;2023-02-27T00:30:20;101996.06;;;-3.14;97.46
14612;BME280;7392;52.078;11.650;2023-02-27T00:32:49;101984.91;;;-3.13;97.87
14612;BME280;7392;52.078;11.650;2023-02-27T00:35:18;101985.78;;;-3.13;97.90
14612;BME280;7392;52.078;11.650;2023-02-27T00:37:46;101997.88;;;-3.13;97.96
14612;BME280;7392;52.078;11.650;2023-02-27T00:40:14;101989.31;;;-3.12;98.15
14612;BME280;7392;52.078;11.650;2023-02-27T00:42:45;101997.13;;;-3.12;97.60
14612;BME280;7392;52.078;11.650;2023-02-27T00:45:17;101981.50;;;-3.12;98.61
14612;BME280;7392;52.078;11.650;2023-02-27T00:47:47;101984.22;;;-3.11;98.14
14612;BME280;7392;52.078;11.650;2023-02-27T00:50:16;101994.72;;;-3.09;98.51
14612;BME280;7392;52.078;11.650;2023-02-27T00:52:45;101983.53;;;-3.08;98.73
14612;BME280;7392;52.078;11.650;2023-02-27T00:55:13;101986.25;;;-3.07;98.34
14612;BME280;7392;52.078;11.650;2023-02-27T00:57:43;101988.84;;;-3.07;98.35
14612;BME280;7392;52.078;11.650;2023-02-27T01:00:12;101981.16;;;-3.05;98.44
14612;BME280;7392;52.078;11.650;2023-02-27T01:02:40;101981.28;;;-3.04;98.88
14612;BME280;7392;52.078;11.650;2023-02-27T01:05:10;101980.34;;;-3.04;98.82
14612;BME280;7392;52.078;11.650;2023-02-27T01:07:38;101978.78;;;-3.02;99.06
14612;BME280;7392;52.078;11.650;2023-02-27T01:10:08;101981.50;;;-3.01;99.15
14612;BME280;7392;52.078;11.650;2023-02-27T01:12:37;101979.78;;;-3.00;99.28
14612;BME280;7392;52.078;11.650;2023-02-27T01:15:09;101977.31;;;-2.98;99.19
14612;BME280;7392;52.078;11.650;2023-02-27T01:17:37;101978.19;;;-2.98;99.15
14612;BME280;7392;52.078;11.650;2023-02-27T01:20:07;101972.22;;;-2.97;99.62
14612;BME280;7392;52.078;11.650;2023-02-27T01:22:35;101968.03;;;-2.95;99.79
14612;BME280;7392;52.078;11.650;2023-02-27T01:25:04;101971.75;;;-2.91;100.00
14612;BME280;7392;52.078;11.650;2023-02-27T01:27:32;101977.28;;;-2.87;100.00
14612;BME280;7392;52.078;11.650;2023-02-27T01:30:08;101962.69;;;-2.85;100.00
14612;BME280;7392;52.078;11.650;2023-02-27T01:32:45;101959.50;;;-2.80;100.00
14612;BME280;7392;52.078;11.650;2023-02-27T01:35:14;101972.72;;;-2.77;100.00
14612;BME280;7392;52.078;11.650;2023-02-27T01:37:41;101956.53;;;-2.73;100.00
14612;BME280;7392;52.078;11.650;2023-02-27T01:40:13;101960.28;;;-2.70;100.00
14612;BME280;7392;52.078;11.650;2023-02-27T01:42:41;101959.47;;;-2.69;100.00
14612;BME280;7392;52.078;11.650;2023-02-27T01:45:24;101964.00;;;-2.66;100.00
14612;BME280;7392;52.078;11.650;2023-02-27T01:48:04;101964.13;;;-2.65;100.00
14612;BME280;7392;52.078;11.650;2023-02-27T01:50:35;101971.09;;;-2.64;100.00
14612;BME280;7392;52.078;11.650;2023-02-27T01:53:04;101966.13;;;-2.60;100.00
14612;BME280;7392;52.078;11.650;2023-02-27T01:55:35;101976.75;;;-2.57;100.00
14612;BME280;7392;52.078;11.650;2023-02-27T01:58:07;101972.56;;;-2.55;100.00
14612;BME280;7392;52.078;11.650;2023-02-27T02:00:40;101964.06;;;-2.53;100.00
14612;BME280;7392;52.078;11.650;2023-02-27T02:03:15;101962.69;;;-2.48;100.00
14612;BME280;7392;52.078;11.650;2023-02-27T02:05:46;101959.50;;;-2.43;100.00
14612;BME280;7392;52.078;11.650;2023-02-27T02:08:19;101957.13;;;-2.40;100.00
14612;BME280;7392;52.078;11.650;2023-02-27T02:10:49;101957.34;;;-2.37;100.00
14612;BME280;7392;52.078;11.650;2023-02-27T02:13:21;101956.63;;;-2.35;100.00
14612;BME280;7392;52.078;11.650;2023-02-27T02:15:59;101954.25;;;-2.32;100.00
14612;BME280;7392;52.078;11.650;2023-02-27T02:18:36;101948.31;;;-2.29;100.00
14612;BME280;7392;52.078;11.650;2023-02-27T02:24:39;101956.56;;;-2.23;100.00
14612;BME280;7392;52.078;11.650;2023-02-27T02:27:27;101957.47;;;-2.22;100.00
14612;BME280;7392;52.078;11.650;2023-02-27T02:30:24;101973.31;;;-2.19;100.00
14612;BME280;7392;52.078;11.650;2023-02-27T02:33:42;101974.53;;;-2.14;100.00
14612;BME280;7392;52.078;11.650;2023-02-27T02:42:27;101966.22;;;-2.09;100.00
14612;BME280;7392;52.078;11.650;2023-02-27T02:45:09;101958.50;;;-2.07;100.00
14612;BME280;7392;52.078;11.650;2023-02-27T02:47:45;101966.44;;;-2.05;100.00
14612;BME280;7392;52.078;11.650;2023-02-27T02:50:41;101971.75;;;-2.04;100.00
14612;BME280;7392;52.078;11.650;2023-02-27T02:53:20;101969.38;;;-2.01;100.00
14612;BME280;7392;52.078;11.650;2023-02-27T02:55:52;101973.75;;;-2.00;100.00
14612;BME280;7392;52.078;11.650;2023-02-27T02:58:28;101978.41;;;-1.96;100.00
14612;BME280;7392;52.078;11.650;2023-02-27T03:01:02;101969.69;;;-1.96;100.00
14612;BME280;7392;52.078;11.650;2023-02-27T03:03:39;101969.88;;;-1.93;100.00
14612;BME280;7392;52.078;11.650;2023-02-27T03:06:16;101978.72;;;-1.91;100.00
14612;BME280;7392;52.078;11.650;2023-02-27T03:08:50;101977.91;;;-1.90;100.00
14612;BME280;7392;52.078;11.650;2023-02-27T03:11:23;101974.50;;;-1.89;100.00
14612;BME280;7392;52.078;11.650;2023-02-27T03:13:55;101979.81;;;-1.88;100.00
14612;BME280;7392;52.078;11.650;2023-02-27T03:16:28;101983.44;;;-1.85;100.00
14612;BME280;7392;52.078;11.650;2023-02-27T03:19:03;101982.66;;;-1.84;100.00
14612;BME280;7392;52.078;11.650;2023-02-27T03:21:36;101983.53;;;-1.84;100.00
14612;BME280;7392;52.078;11.650;2023-02-27T03:24:09;101983.66;;;-1.82;100.00
14612;BME280;7392;52.078;11.650;2023-02-27T03:26:42;101982.72;;;-1.83;100.00
14612;BME280;7392;52.078;11.650;2023-02-27T03:29:18;101980.22;;;-1.81;100.00
14612;BME280;7392;52.078;11.650;2023-02-27T03:31:48;101987.25;;;-1.80;100.00
14612;BME280;7392;52.078;11.650;2023-02-27T03:34:23;101981.16;;;-1.81;100.00
14612;BME280;7392;52.078;11.650;2023-02-27T03:37:01;101995.06;;;-1.80;100.00
14612;BME280;7392;52.078;11.650;2023-02-27T03:39:38;101980.22;;;-1.81;100.00
14612;BME280;7392;52.078;11.650;2023-02-27T03:42:18;101987.94;;;-1.83;100.00
14612;BME280;7392;52.078;11.650;2023-02-27T03:45:02;101986.94;;;-1.85;100.00
14612;BME280;7392;52.078;11.650;2023-02-27T03:47:33;101989.31;;;-1.88;100.00
14612;BME280;7392;52.078;11.650;2023-02-27T03:50:02;101995.25;;;-1.91;100.00
14612;BME280;7392;52.078;11.650;2023-02-27T03:52:30;101995.91;;;-1.93;100.00
14612;BME280;7392;52.078;11.650;2023-02-27T03:55:02;101993.91;;;-1.97;100.00
14612;BME280;7392;52.078;11.650;2023-02-27T03:57:36;101990.97;;;-2.02;100.00
14612;BME280;7392;52.078;11.650;2023-02-27T04:00:08;102003.78;;;-2.05;100.00
14612;BME280;7392;52.078;11.650;2023-02-27T04:02:43;102000.06;;;-2.09;100.00
14612;BME280;7392;52.078;11.650;2023-02-27T04:05:16;102002.38;;;-2.13;100.00
14612;BME280;7392;52.078;11.650;2023-02-27T04:08:00;102002.16;;;-2.16;100.00
14612;BME280;7392;52.078;11.650;2023-02-27T04:10:49;102006.94;;;-2.22;100.00
14612;BME280;7392;52.078;11.650;2023-02-27T04:13:38;102002.31;;;-2.27;100.00
14612;BME280;7392;52.078;11.650;2023-02-27T04:16:29;102003.69;;;-2.32;100.00
14612;BME280;7392;52.078;11.650;2023-02-27T04:19:13;102008.47;;;-2.38;100.00
14612;BME280;7392;52.078;11.650;2023-02-27T04:21:50;102014.16;;;-2.43;100.00
14612;BME280;7392;52.078;11.650;2023-02-27T04:24:31;102021.63;;;-2.48;100.00
14612;BME280;7392;52.078;11.650;2023-02-27T04:27:07;102023.00;;;-2.53;100.00
14612;BME280;7392;52.078;11.650;2023-02-27T04:29:49;102020.97;;;-2.57;100.00
14612;BME280;7392;52.078;11.650;2023-02-27T04:32:27;102024.06;;;-2.63;100.00
14612;BME280;7392;52.078;11.650;2023-02-27T04:35:01;102027.22;;;-2.67;100.00
14612;BME280;7392;52.078;11.650;2023-02-27T04:37:36;102032.09;;;-2.72;100.00
14612;BME280;7392;52.078;11.650;2023-02-27T04:40:11;102032.66;;;-2.76;100.00
14612;BME280;7392;52.078;11.650;2023-02-27T04:42:45;102034.94;;;-2.80;100.00
14612;BME280;7392;52.078;11.650;2023-02-27T04:45:20;102030.19;;;-2.86;100.00
14612;BME280;7392;52.078;11.650;2023-02-27T04:47:53;102040.25;;;-2.91;100.00
14612;BME280;7392;52.078;11.650;2023-02-27T04:50:25;102039.13;;;-2.94;100.00
14612;BME280;7392;52.078;11.650;2023-02-27T04:52:58;102041.50;;;-2.97;100.00
14612;BME280;7392;52.078;11.650;2023-02-27T04:55:32;102044.69;;;-3.02;100.00
14612;BME280;7392;52.078;11.650;2023-02-27T04:58:07;102040.84;;;-3.07;100.00
14612;BME280;7392;52.078;11.650;2023-02-27T05:00:45;102046.63;;;-3.11;100.00
14612;BME280;7392;52.078;11.650;2023-02-27T05:03:18;102045.59;;;-3.13;100.00
14612;BME280;7392;52.078;11.650;2023-02-27T05:05:51;102044.34;;;-3.18;100.00
14612;BME280;7392;52.078;11.650;2023-02-27T05:08:25;102043.22;;;-3.22;100.00
14612;BME280;7392;52.078;11.650;2023-02-27T05:11:00;102043.66;;;-3.27;100.00
14612;BME280;7392;52.078;11.650;2023-02-27T05:13:34;102049.41;;;-3.31;100.00
14612;BME280;7392;52.078;11.650;2023-02-27T05:16:10;102042.06;;;-3.37;100.00
14612;BME280;7392;52.078;11.650;2023-02-27T05:18:43;102048.72;;;-3.41;100.00
14612;BME280;7392;52.078;11.650;2023-02-27T05:21:21;102044.22;;;-3.43;100.00
14612;BME280;7392;52.078;11.650;2023-02-27T05:23:57;102050.09;;;-3.46;100.00
14612;BME280;7392;52.078;11.650;2023-02-27T05:26:42;102041.94;;;-3.50;100.00
14612;BME280;7392;52.078;11.650;2023-02-27T05:29:17;102044.31;;;-3.53;100.00
14612;BME280;7392;52.078;11.650;2023-02-27T05:31:50;102040.69;;;-3.55;100.00
14612;BME280;7392;52.078;11.650;2023-02-27T05:34:22;102045.69;;;-3.59;100.00
14612;BME280;7392;52.078;11.650;2023-02-27T05:36:56;102041.91;;;-3.62;100.00
14612;BME280;7392;52.078;11.650;2023-02-27T05:39:28;102043.50;;;-3.64;100.00
14612;BME280;7392;52.078;11.650;2023-02-27T05:41:59;102038.88;;;-3.68;100.00
14612;BME280;7392;52.078;11.650;2023-02-27T05:44:31;102034.44;;;-3.69;100.00
14612;BME280;7392;52.078;11.650;2023-02-27T05:47:05;102040.22;;;-3.73;100.00
14612;BME280;7392;52.078;11.650;2023-02-27T05:49:36;102044.28;;;-3.77;100.00
14612;BME280;7392;52.078;11.650;2023-02-27T05:52:10;102040.66;;;-3.79;100.00
14612;BME280;7392;52.078;11.650;2023-02-27T05:54:43;102054.28;;;-3.82;100.00
14612;BME280;7392;52.078;11.650;2023-02-27T05:57:15;102056.66;;;-3.85;100.00
14612;BME280;7392;52.078;11.650;2023-02-27T05:59:49;102052.28;;;-3.86;100.00
14612;BME280;7392;52.078;11.650;2023-02-27T06:02:22;102059.00;;;-3.88;100.00
14612;BME280;7392;52.078;11.650;2023-02-27T06:04:51;102052.78;;;-3.90;100.00
14612;BME280;7392;52.078;11.650;2023-02-27T06:07:21;102064.75;;;-3.92;100.00
14612;BME280;7392;52.078;11.650;2023-02-27T06:09:50;102060.34;;;-3.93;100.00
14612;BME280;7392;52.078;11.650;2023-02-27T06:12:18;102062.84;;;-3.95;100.00
14612;BME280;7392;52.078;11.650;2023-02-27T06:14:48;102069.59;;;-3.97;100.00
14612;BME280;7392;52.078;11.650;2023-02-27T06:17:18;102063.63;;;-3.96;100.00
14612;BME280;7392;52.078;11.650;2023-02-27T06:19:49;102069.72;;;-3.95;100.00
14612;BME280;7392;52.078;11.650;2023-02-27T06:22:18;102074.00;;;-3.96;100.00
14612;BME280;7392;52.078;11.650;2023-02-27T06:24:46;102075.72;;;-3.96;100.00
14612;BME280;7392;52.078;11.650;2023-02-27T06:27:15;102075.94;;;-3.93;100.00
14612;BME280;7392;52.078;11.650;2023-02-27T06:29:44;102083.72;;;-3.93;100.00
14612;BME280;7392;52.078;11.650;2023-02-27T06:32:13;102086.44;;;-3.91;100.00
14612;BME280;7392;52.078;11.650;2023-02-27T06:34:44;102097.63;;;-3.92;100.00
14612;BME280;7392;52.078;11.650;2023-02-27T06:37:13;102089.97;;;-3.91;100.00
14612;BME280;7392;52.078;11.650;2023-02-27T06:39:41;102091.63;;;-3.91;100.00
14612;BME280;7392;52.078;11.650;2023-02-27T06:42:09;102106.44;;;-3.90;100.00
14612;BME280;7392;52.078;11.650;2023-02-27T06:44:37;102109.03;;;-3.90;100.00
14612;BME280;7392;52.078;11.650;2023-02-27T06:47:05;102108.25;;;-3.89;100.00
14612;BME280;7392;52.078;11.650;2023-02-27T06:49:35;102111.75;;;-3.89;100.00
14612;BME280;7392;52.078;11.650;2023-02-27T06:52:03;102119.66;;;-3.87;100.00
14612;BME280;7392;52.078;11.650;2023-02-27T06:54:32;102122.38;;;-3.86;100.00
14612;BME280;7392;52.078;11.650;2023-02-27T06:57:00;102116.38;;;-3.85;100.00
14612;BME280;7392;52.078;11.650;2023-02-27T06:59:28;102122.50;;;-3.84;100.00
14612;BME280;7392;52.078;11.650;2023-02-27T07:01:56;102127.00;;;-3.82;100.00
14612;BME280;7392;52.078;11.650;2023-02-27T07:04:24;102131.44;;;-3.81;100.00
14612;BME280;7392;52.078;11.650;2023-02-27T07:06:52;102128.16;;;-3.78;100.00
14612;BME280;7392;52.078;11.650;2023-02-27T07:09:41;102140.50;;;-3.76;100.00
14612;BME280;7392;52.078;11.650;2023-02-27T07:12:09;102144.88;;;-3.74;100.00
14612;BME280;7392;52.078;11.650;2023-02-27T07:14:37;102162.53;;;-3.70;100.00
14612;BME280;7392;52.078;11.650;2023-02-27T07:17:05;102156.66;;;-3.68;100.00
14612;BME280;7392;52.078;11.650;2023-02-27T07:19:33;102172.47;;;-3.65;100.00
14612;BME280;7392;52.078;11.650;2023-02-27T07:22:04;102168.31;;;-3.63;100.00
14612;BME280;7392;52.078;11.650;2023-02-27T07:24:31;102169.31;;;-3.61;100.00
14612;BME280;7392;52.078;11.650;2023-02-27T07:27:01;102170.47;;;-3.57;100.00
14612;BME280;7392;52.078;11.650;2023-02-27T07:29:28;102170.72;;;-3.54;100.00
14612;BME280;7392;52.078;11.650;2023-02-27T07:31:59;102172.66;;;-3.51;100.00
14612;BME280;7392;52.078;11.650;2023-02-27T07:34:27;102175.59;;;-3.47;100.00
14612;BME280;7392;52.078;11.650;2023-02-27T07:36:55;102165.31;;;-3.45;100.00
14612;BME280;7392;52.078;11.650;2023-02-27T07:39:23;102169.97;;;-3.41;100.00
14612;BME280;7392;52.078;11.650;2023-02-27T07:41:51;102178.00;;;-3.38;100.00
14612;BME280;7392;52.078;11.650;2023-02-27T07:44:22;102183.41;;;-3.35;100.00
14612;BME280;7392;52.078;11.650;2023-02-27T07:46:50;102169.91;;;-3.31;100.00
14612;BME280;7392;52.078;11.650;2023-02-27T07:49:18;102175.53;;;-3.25;100.00
14612;BME280;7392;52.078;11.650;2023-02-27T07:51:48;102166.31;;;-3.21;100.00
14612;BME280;7392;52.078;11.650;2023-02-27T07:54:16;102181.47;;;-3.15;100.00
14612;BME280;7392;52.078;11.650;2023-02-27T07:56:44;102182.72;;;-3.10;100.00
14612;BME280;7392;52.078;11.650;2023-02-27T07:59:12;102183.97;;;-3.05;100.00
14612;BME280;7392;52.078;11.650;2023-02-27T08:01:41;102182.75;;;-2.98;100.00
14612;BME280;7392;52.078;11.650;2023-02-27T08:04:09;102174.47;;;-2.93;100.00
14612;BME280;7392;52.078;11.650;2023-02-27T08:06:37;102182.75;;;-2.87;100.00
14612;BME280;7392;52.078;11.650;2023-02-27T08:09:05;102180.59;;;-2.80;100.00
14612;BME280;7392;52.078;11.650;2023-02-27T08:11:34;102181.19;;;-2.73;100.00
14612;BME280;7392;52.078;11.650;2023-02-27T08:14:02;102180.84;;;-2.66;100.00
14612;BME280;7392;52.078;11.650;2023-02-27T08:16:32;102177.78;;;-2.60;100.00
14612;BME280;7392;52.078;11.650;2023-02-27T08:19:02;102181.84;;;-2.52;100.00
14612;BME280;7392;52.078;11.650;2023-02-27T08:21:31;102182.31;;;-2.46;100.00
14612;BME280;7392;52.078;11.650;2023-02-27T08:23:59;102183.78;;;-2.37;100.00
14612;BME280;7392;52.078;11.650;2023-02-27T08:26:27;102183.31;;;-2.32;100.00
14612;BME280;7392;52.078;11.650;2023-02-27T08:28:55;102182.84;;;-2.26;100.00
14612;BME280;7392;52.078;11.650;2023-02-27T08:31:23;102185.09;;;-2.19;100.00
14612;BME280;7392;52.078;11.650;2023-02-27T08:33:51;102178.63;;;-2.12;100.00
14612;BME280;7392;52.078;11.650;2023-02-27T08:36:35;102180.88;;;-2.05;100.00
14612;BME280;7392;52.078;11.650;2023-02-27T08:39:03;102182.22;;;-1.98;100.00
14612;BME280;7392;52.078;11.650;2023-02-27T08:41:32;102180.97;;;-1.92;100.00
14612;BME280;7392;52.078;11.650;2023-02-27T08:44:00;102178.09;;;-1.83;100.00
14612;BME280;7392;52.078;11.650;2023-02-27T08:46:28;102171.75;;;-1.75;100.00
14612;BME280;7392;52.078;11.650;2023-02-27T08:48:57;102180.34;;;-1.64;100.00
14612;BME280;7392;52.078;11.650;2023-02-27T08:51:25;102176.75;;;-1.53;100.00
14612;BME280;7392;52.078;11.650;2023-02-27T08:53:56;102181.13;;;-1.40;100.00
14612;BME280;7392;52.078;11.650;2023-02-27T08:56:26;102177.75;;;-1.25;100.00
14612;BME280;7392;52.078;11.650;2023-02-27T08:58:55;102178.00;;;-1.09;100.00
14612;BME280;7392;52.078;11.650;2023-02-27T09:01:23;102178.22;;;-0.92;100.00
14612;BME280;7392;52.078;11.650;2023-02-27T09:03:54;102175.84;;;-0.76;100.00
14612;BME280;7392;52.078;11.650;2023-02-27T09:06:23;102172.84;;;-0.55;100.00
14612;BME280;7392;52.078;11.650;2023-02-27T09:08:52;102165.50;;;-0.34;100.00
14612;BME280;7392;52.078;11.650;2023-02-27T09:11:21;102168.72;;;-0.12;100.00
14612;BME280;7392;52.078;11.650;2023-02-27T09:13:49;102172.97;;;0.14;100.00
14612;BME280;7392;52.078;11.650;2023-02-27T09:16:18;102169.78;;;0.33;100.00
14612;BME280;7392;52.078;11.650;2023-02-27T09:18:47;102171.91;;;0.54;100.00
14612;BME280;7392;52.078;11.650;2023-02-27T09:21:15;102170.50;;;0.74;100.00
14612;BME280;7392;52.078;11.650;2023-02-27T09:23:44;102179.03;;;1.00;100.00
14612;BME280;7392;52.078;11.650;2023-02-27T09:26:12;102188.50;;;1.27;100.00
14612;BME280;7392;52.078;11.650;2023-02-27T09:28:42;102188.13;;;1.51;100.00
14612;BME280;7392;52.078;11.650;2023-02-27T09:31:11;102178.13;;;1.75;100.00
14612;BME280;7392;52.078;11.650;2023-02-27T09:33:39;102180.41;;;2.00;100.00
14612;BME280;7392;52.078;11.650;2023-02-27T09:36:07;102185.28;;;2.26;100.00
14612;BME280;7392;52.078;11.650;2023-02-27T09:38:36;102186.69;;;2.52;100.00
14612;BME280;7392;52.078;11.650;2023-02-27T09:41:29;102178.63;;;2.81;100.00
14612;BME280;7392;52.078;11.650;2023-02-27T09:44:00;102191.66;;;2.96;99.88
14612;BME280;7392;52.078;11.650;2023-02-27T09:46:30;102183.94;;;2.99;97.92
14612;BME280;7392;52.078;11.650;2023-02-27T09:49:00;102197.16;;;3.01;97.05
14612;BME280;7392;52.078;11.650;2023-02-27T09:51:30;102199.09;;;3.05;96.39
14612;BME280;7392;52.078;11.650;2023-02-27T09:53:59;102191.91;;;3.01;94.22
14612;BME280;7392;52.078;11.650;2023-02-27T09:56:30;102194.53;;;3.01;94.25
14612;BME280;7392;52.078;11.650;2023-02-27T09:59:08;102197.31;;;3.04;94.07
14612;BME280;7392;52.078;11.650;2023-02-27T10:01:44;102195.56;;;3.05;93.31
14612;BME280;7392;52.078;11.650;2023-02-27T10:04:29;102194.00;;;3.08;93.94
14612;BME280;7392;52.078;11.650;2023-02-27T10:07:06;102194.25;;;3.13;93.33
14612;BME280;7392;52.078;11.650;2023-02-27T10:09:46;102193.41;;;3.14;93.12
14612;BME280;7392;52.078;11.650;2023-02-27T10:12:33;102203.34;;;3.20;93.62
14612;BME280;7392;52.078;11.650;2023-02-27T10:15:09;102205.13;;;3.21;92.22
14612;BME280;7392;52.078;11.650;2023-02-27T10:17:42;102199.78;;;3.19;91.43
14612;BME280;7392;52.078;11.650;2023-02-27T10:20:19;102207.59;;;3.17;90.93
14612;BME280;7392;52.078;11.650;2023-02-27T10:22:54;102204.00;;;3.15;90.98
14612;BME280;7392;52.078;11.650;2023-02-27T10:25:24;102208.34;;;3.15;91.04
14612;BME280;7392;52.078;11.650;2023-02-27T10:28:08;102204.00;;;3.15;90.99
14612;BME280;7392;52.078;11.650;2023-02-27T10:30:41;102204.97;;;3.17;90.85
14612;BME280;7392;52.078;11.650;2023-02-27T10:33:16;102213.91;;;3.21;90.71
14612;BME280;7392;52.078;11.650;2023-02-27T10:35:46;102201.63;;;3.20;90.11
14612;BME280;7392;52.078;11.650;2023-02-27T10:38:15;102206.94;;;3.22;90.12
14612;BME280;7392;52.078;11.650;2023-02-27T10:40:46;102210.78;;;3.28;90.11
14612;BME280;7392;52.078;11.650;2023-02-27T10:43:16;102205.25;;;3.58;90.20
14612;BME280;7392;52.078;11.650;2023-02-27T10:45:46;102196.22;;;3.89;89.41
14612;BME280;7392;52.078;11.650;2023-02-27T10:48:15;102202.91;;;4.00;88.58
14612;BME280;7392;52.078;11.650;2023-02-27T10:50:44;102196.50;;;4.13;87.74
14612;BME280;7392;52.078;11.650;2023-02-27T10:53:18;102199.78;;;4.27;87.19
14612;BME280;7392;52.078;11.650;2023-02-27T10:55:57;102197.81;;;4.41;86.17
14612;BME280;7392;52.078;11.650;2023-02-27T10:58:28;102198.44;;;4.55;86.42
14612;BME280;7392;52.078;11.650;2023-02-27T11:01:03;102195.22;;;4.81;85.99
14612;BME280;7392;52.078;11.650;2023-02-27T11:03:35;102195.75;;;5.13;85.10
14612;BME280;7392;52.078;11.650;2023-02-27T11:06:09;102195.63;;;5.31;84.16
14612;BME280;7392;52.078;11.650;2023-02-27T11:08:38;102192.16;;;5.32;83.02
14612;BME280;7392;52.078;11.650;2023-02-27T11:11:07;102184.94;;;5.49;82.20
14612;BME280;7392;52.078;11.650;2023-02-27T11:13:38;102196.00;;;5.61;81.27
14612;BME280;7392;52.078;11.650;2023-02-27T11:16:11;102200.63;;;5.67;80.85
14612;BME280;7392;52.078;11.650;2023-02-27T11:18:41;102183.09;;;5.90;80.14
14612;BME280;7392;52.078;11.650;2023-02-27T11:21:18;102186.69;;;6.13;79.46
14612;BME280;7392;52.078;11.650;2023-02-27T11:23:57;102188.50;;;6.39;78.28
14612;BME280;7392;52.078;11.650;2023-02-27T11:26:29;102176.50;;;6.47;76.81
14612;BME280;7392;52.078;11.650;2023-02-27T11:29:04;102185.66;;;6.57;76.19
14612;BME280;7392;52.078;11.650;2023-02-27T11:31:35;102180.19;;;6.76;75.24
14612;BME280;7392;52.078;11.650;2023-02-27T11:34:06;102180.88;;;6.95;74.83
14612;BME280;7392;52.078;11.650;2023-02-27T11:36:38;102176.28;;;7.15;74.12
14612;BME280;7392;52.078;11.650;2023-02-27T11:39:24;102179.50;;;7.32;72.94
14612;BME280;7392;52.078;11.650;2023-02-27T11:41:56;102176.75;;;7.28;71.82
14612;BME280;7392;52.078;11.650;2023-02-27T11:44:27;102176.41;;;7.18;69.69
14612;BME280;7392;52.078;11.650;2023-02-27T11:47:20;102181.22;;;7.29;70.57
14612;BME280;7392;52.078;11.650;2023-02-27T11:53:09;102175.72;;;7.78;69.45
14612;BME280;7392;52.078;11.650;2023-02-27T11:55:45;102167.19;;;7.86;69.11
14612;BME280;7392;52.078;11.650;2023-02-27T11:58:17;102175.97;;;8.14;68.75
14612;BME280;7392;52.078;11.650;2023-02-27T12:00:53;102169.66;;;8.39;68.65
14612;BME280;7392;52.078;11.650;2023-02-27T12:03:34;102170.38;;;8.63;67.13
14612;BME280;7392;52.078;11.650;2023-02-27T12:06:14;102161.19;;;8.82;66.45
14612;BME280;7392;52.078;11.650;2023-02-27T12:08:48;102159.22;;;9.08;66.32
14612;BME280;7392;52.078;11.650;2023-02-27T12:11:21;102155.41;;;9.31;65.02
14612;BME280;7392;52.078;11.650;2023-02-27T12:14:00;102152.09;;;9.40;64.36
14612;BME280;7392;52.078;11.650;2023-02-27T12:16:36;102149.94;;;9.25;62.61
14612;BME280;7392;52.078;11.650;2023-02-27T12:19:16;102147.75;;;9.07;61.98
14612;BME280;7392;52.078;11.650;2023-02-27T12:21:51;102148.00;;;8.85;61.24
14612;BME280;7392;52.078;11.650;2023-02-27T12:24:28;102151.25;;;8.73;61.66
14612;BME280;7392;52.078;11.650;2023-02-27T12:27:07;102146.50;;;8.61;61.69
14612;BME280;7392;52.078;11.650;2023-02-27T12:29:43;102144.44;;;8.52;61.06
14612;BME280;7392;52.078;11.650;2023-02-27T12:32:16;102143.19;;;8.39;60.73
14612;BME280;7392;52.078;11.650;2023-02-27T12:34:50;102145.56;;;8.30;61.36
14612;BME280;7392;52.078;11.650;2023-02-27T12:37:23;102143.63;;;8.24;61.49
14612;BME280;7392;52.078;11.650;2023-02-27T12:39:53;102142.53;;;8.18;61.37
14612;BME280;7392;52.078;11.650;2023-02-27T12:42:42;102151.06;;;8.08;61.96
14612;BME280;7392;52.078;11.650;2023-02-27T12:48:49;102156.84;;;7.65;62.92
14612;BME280;7392;52.078;11.650;2023-02-27T12:51:30;102150.94;;;7.47;62.88
14612;BME280;7392;52.078;11.650;2023-02-27T12:54:35;102154.66;;;7.26;63.28
14612;BME280;7392;52.078;11.650;2023-02-27T12:57:24;102158.72;;;7.17;63.79
14612;BME280;7392;52.078;11.650;2023-02-27T13:03:03;102169.28;;;6.91;64.64
14612;BME280;7392;52.078;11.650;2023-02-27T13:05:40;102158.47;;;6.83;64.69
14612;BME280;7392;52.078;11.650;2023-02-27T13:11:18;102167.75;;;6.72;62.94
14612;BME280;7392;52.078;11.650;2023-02-27T13:13:57;102161.41;;;6.67;62.73
14612;BME280;7392;52.078;11.650;2023-02-27T13:16:32;102169.06;;;6.85;63.24
14612;BME280;7392;52.078;11.650;2023-02-27T13:19:05;102157.72;;;7.13;62.79
14612;BME280;7392;52.078;11.650;2023-02-27T13:21:39;102160.50;;;7.43;62.01
14612;BME280;7392;52.078;11.650;2023-02-27T13:24:33;102156.50;;;7.56;61.43
14612;BME280;7392;52.078;11.650;2023-02-27T13:27:14;102168.63;;;7.77;60.29
14612;BME280;7392;52.078;11.650;2023-02-27T13:29:50;102161.66;;;8.08;59.66
14612;BME280;7392;52.078;11.650;2023-02-27T13:32:34;102159.72;;;8.31;58.03
14612;BME280;7392;52.078;11.650;2023-02-27T13:35:21;102168.69;;;8.36;57.83
14612;BME280;7392;52.078;11.650;2023-02-27T13:37:53;102168.81;;;8.40;58.34
14612;BME280;7392;52.078;11.650;2023-02-27T13:40:35;102171.28;;;8.34;57.62